sensor_id;sensor_type;location;lat;lon;timestamp;P1;durP1;ratioP1;P2;durP2;ratioP2
51852;SDS011;37894;53.172;6.598;2022-11-28T00:00:26;19.60;;;11.93;;
51852;SDS011;37894;53.172;6.598;2022-11-28T00:02:52;22.50;;;12.50;;
51852;SDS011;37894;53.172;6.598;2022-11-28T00:05:18;23.00;;;12.38;;
51852;SDS011;37894;53.172;6.598;2022-11-28T00:07:44;19.50;;;11.25;;
51852;SDS011;37894;53.172;6.598;2022-11-28T00:10:09;20.65;;;11.43;;
51852;SDS011;37894;53.172;6.598;2022-11-28T00:12:36;19.98;;;11.23;;
51852;SDS011;37894;53.172;6.598;2022-11-28T00:15:02;19.17;;;10.57;;
51852;SDS011;37894;53.172;6.598;2022-11-28T00:17:29;17.55;;;10.30;;
51852;SDS011;37894;53.172;6.598;2022-11-28T00:19:55;17.70;;;10.05;;
51852;SDS011;37894;53.172;6.598;2022-11-28T00:22:20;18.98;;;10.70;;
51852;SDS011;37894;53.172;6.598;2022-11-28T00:24:46;14.18;;;9.15;;
51852;SDS011;37894;53.172;6.598;2022-11-28T00:27:12;18.33;;;10.27;;
51852;SDS011;37894;53.172;6.598;2022-11-28T00:29:38;17.27;;;10.25;;
51852;SDS011;37894;53.172;6.598;2022-11-28T00:32:04;19.17;;;10.63;;
51852;SDS011;37894;53.172;6.598;2022-11-28T00:34:30;17.77;;;9.55;;
51852;SDS011;37894;53.172;6.598;2022-11-28T00:36:56;17.15;;;9.35;;
51852;SDS011;37894;53.172;6.598;2022-11-28T00:39:22;17.85;;;10.40;;
51852;SDS011;37894;53.172;6.598;2022-11-28T00:41:48;17.60;;;9.90;;
51852;SDS011;37894;53.172;6.598;2022-11-28T00:44:13;17.70;;;9.77;;
51852;SDS011;37894;53.172;6.598;2022-11-28T00:46:40;18.27;;;9.77;;
51852;SDS011;37894;53.172;6.598;2022-11-28T00:49:06;15.52;;;10.27;;
51852;SDS011;37894;53.172;6.598;2022-11-28T00:51:32;18.00;;;9.98;;
51852;SDS011;37894;53.172;6.598;2022-11-28T00:54:00;14.70;;;9.25;;
51852;SDS011;37894;53.172;6.598;2022-11-28T00:56:28;18.02;;;10.18;;
51852;SDS011;37894;53.172;6.598;2022-11-28T00:58:55;14.60;;;8.88;;
51852;SDS011;37894;53.172;6.598;2022-11-28T01:01:25;16.73;;;10.20;;
51852;SDS011;37894;53.172;6.598;2022-11-28T01:03:53;16.92;;;9.25;;
51852;SDS011;37894;53.172;6.598;2022-11-28T01:06:30;15.18;;;9.60;;
51852;SDS011;37894;53.172;6.598;2022-11-28T01:08:58;17.42;;;9.85;;
51852;SDS011;37894;53.172;6.598;2022-11-28T01:11:26;21.35;;;9.63;;
51852;SDS011;37894;53.172;6.598;2022-11-28T01:13:53;17.10;;;11.00;;
51852;SDS011;37894;53.172;6.598;2022-11-28T01:16:20;15.30;;;9.27;;
51852;SDS011;37894;53.172;6.598;2022-11-28T01:18:46;16.80;;;9.32;;
51852;SDS011;37894;53.172;6.598;2022-11-28T01:21:12;18.13;;;9.73;;
51852;SDS011;37894;53.172;6.598;2022-11-28T01:23:38;18.33;;;9.38;;
51852;SDS011;37894;53.172;6.598;2022-11-28T01:26:04;17.50;;;10.00;;
51852;SDS011;37894;53.172;6.598;2022-11-28T01:28:32;13.68;;;8.80;;
51852;SDS011;37894;53.172;6.598;2022-11-28T01:31:05;17.58;;;10.65;;
51852;SDS011;37894;53.172;6.598;2022-11-28T01:33:32;15.30;;;9.23;;
51852;SDS011;37894;53.172;6.598;2022-11-28T01:35:58;16.20;;;9.57;;
51852;SDS011;37894;53.172;6.598;2022-11-28T01:38:25;14.65;;;9.35;;
51852;SDS011;37894;53.172;6.598;2022-11-28T01:40:51;16.70;;;9.02;;
51852;SDS011;37894;53.172;6.598;2022-11-28T01:43:18;15.57;;;9.80;;
51852;SDS011;37894;53.172;6.598;2022-11-28T01:45:44;20.08;;;10.05;;
51852;SDS011;37894;53.172;6.598;2022-11-28T01:48:10;22.75;;;9.88;;
51852;SDS011;37894;53.172;6.598;2022-11-28T01:50:39;21.60;;;10.20;;
51852;SDS011;37894;53.172;6.598;2022-11-28T01:53:08;16.45;;;9.02;;
51852;SDS011;37894;53.172;6.598;2022-11-28T01:56:12;25.10;;;10.88;;
51852;SDS011;37894;53.172;6.598;2022-11-28T01:58:32;16.55;;;9.52;;
51852;SDS011;37894;53.172;6.598;2022-11-28T02:01:00;19.05;;;11.20;;
51852;SDS011;37894;53.172;6.598;2022-11-28T02:03:29;18.13;;;11.30;;
51852;SDS011;37894;53.172;6.598;2022-11-28T02:05:58;18.13;;;11.15;;
51852;SDS011;37894;53.172;6.598;2022-11-28T02:08:24;17.60;;;11.07;;
51852;SDS011;37894;53.172;6.598;2022-11-28T02:13:32;22.13;;;11.57;;
51852;SDS011;37894;53.172;6.598;2022-11-28T02:24:48;22.83;;;13.32;;
51852;SDS011;37894;53.172;6.598;2022-11-28T02:27:27;22.50;;;12.77;;
51852;SDS011;37894;53.172;6.598;2022-11-28T02:33:38;23.55;;;13.57;;
51852;SDS011;37894;53.172;6.598;2022-11-28T02:36:14;25.27;;;15.75;;
51852;SDS011;37894;53.172;6.598;2022-11-28T02:39:12;30.42;;;15.50;;
51852;SDS011;37894;53.172;6.598;2022-11-28T02:41:53;28.17;;;16.25;;
51852;SDS011;37894;53.172;6.598;2022-11-28T02:44:33;30.02;;;15.32;;
51852;SDS011;37894;53.172;6.598;2022-11-28T02:50:06;26.10;;;16.05;;
51852;SDS011;37894;53.172;6.598;2022-11-28T02:52:40;30.65;;;15.85;;
51852;SDS011;37894;53.172;6.598;2022-11-28T02:55:10;29.40;;;15.90;;
51852;SDS011;37894;53.172;6.598;2022-11-28T02:57:37;28.98;;;17.35;;
51852;SDS011;37894;53.172;6.598;2022-11-28T03:05:58;24.38;;;14.65;;
51852;SDS011;37894;53.172;6.598;2022-11-28T03:14:14;25.42;;;15.15;;
51852;SDS011;37894;53.172;6.598;2022-11-28T03:19:46;26.63;;;15.88;;
51852;SDS011;37894;53.172;6.598;2022-11-28T03:25:13;32.25;;;16.92;;
51852;SDS011;37894;53.172;6.598;2022-11-28T03:27:44;34.08;;;17.15;;
51852;SDS011;37894;53.172;6.598;2022-11-28T03:30:45;26.15;;;16.85;;
51852;SDS011;37894;53.172;6.598;2022-11-28T03:33:22;28.95;;;17.33;;
51852;SDS011;37894;53.172;6.598;2022-11-28T03:35:52;30.52;;;17.10;;
51852;SDS011;37894;53.172;6.598;2022-11-28T03:38:27;27.77;;;16.45;;
51852;SDS011;37894;53.172;6.598;2022-11-28T03:41:07;32.53;;;18.83;;
51852;SDS011;37894;53.172;6.598;2022-11-28T03:43:45;27.52;;;17.58;;
51852;SDS011;37894;53.172;6.598;2022-11-28T03:46:17;28.58;;;17.08;;
51852;SDS011;37894;53.172;6.598;2022-11-28T03:48:48;28.85;;;17.45;;
51852;SDS011;37894;53.172;6.598;2022-11-28T03:51:19;27.10;;;17.43;;
51852;SDS011;37894;53.172;6.598;2022-11-28T03:53:59;32.35;;;18.60;;
51852;SDS011;37894;53.172;6.598;2022-11-28T03:59:03;36.35;;;20.02;;
51852;SDS011;37894;53.172;6.598;2022-11-28T04:01:35;29.52;;;19.23;;
51852;SDS011;37894;53.172;6.598;2022-11-28T04:05:11;34.35;;;19.95;;
51852;SDS011;37894;53.172;6.598;2022-11-28T04:07:25;35.00;;;20.50;;
51852;SDS011;37894;53.172;6.598;2022-11-28T04:20:52;36.70;;;21.10;;
51852;SDS011;37894;53.172;6.598;2022-11-28T04:23:19;40.78;;;22.48;;
51852;SDS011;37894;53.172;6.598;2022-11-28T04:25:58;41.53;;;21.63;;
51852;SDS011;37894;53.172;6.598;2022-11-28T04:28:28;46.58;;;23.58;;
51852;SDS011;37894;53.172;6.598;2022-11-28T04:30:57;40.10;;;22.35;;
51852;SDS011;37894;53.172;6.598;2022-11-28T04:33:25;41.53;;;23.63;;
51852;SDS011;37894;53.172;6.598;2022-11-28T04:35:55;45.67;;;24.23;;
51852;SDS011;37894;53.172;6.598;2022-11-28T04:38:22;43.50;;;23.88;;
51852;SDS011;37894;53.172;6.598;2022-11-28T04:40:55;45.17;;;27.05;;
51852;SDS011;37894;53.172;6.598;2022-11-28T04:43:36;40.83;;;23.02;;
51852;SDS011;37894;53.172;6.598;2022-11-28T04:46:13;44.60;;;24.58;;
51852;SDS011;37894;53.172;6.598;2022-11-28T04:48:42;43.70;;;24.70;;
51852;SDS011;37894;53.172;6.598;2022-11-28T04:51:18;47.22;;;27.13;;
51852;SDS011;37894;53.172;6.598;2022-11-28T04:56:54;50.97;;;27.27;;
51852;SDS011;37894;53.172;6.598;2022-11-28T04:59:42;52.28;;;27.73;;
51852;SDS011;37894;53.172;6.598;2022-11-28T05:02:08;44.40;;;26.30;;
51852;SDS011;37894;53.172;6.598;2022-11-28T05:04:37;49.65;;;27.52;;
51852;SDS011;37894;53.172;6.598;2022-11-28T05:07:04;47.70;;;26.60;;
51852;SDS011;37894;53.172;6.598;2022-11-28T05:09:32;52.08;;;28.35;;
51852;SDS011;37894;53.172;6.598;2022-11-28T05:11:58;46.55;;;26.13;;
51852;SDS011;37894;53.172;6.598;2022-11-28T05:14:24;44.58;;;26.33;;
51852;SDS011;37894;53.172;6.598;2022-11-28T05:16:49;47.05;;;28.50;;
51852;SDS011;37894;53.172;6.598;2022-11-28T05:19:15;46.38;;;25.90;;
51852;SDS011;37894;53.172;6.598;2022-11-28T05:21:42;41.55;;;24.80;;
51852;SDS011;37894;53.172;6.598;2022-11-28T05:24:07;47.65;;;27.50;;
51852;SDS011;37894;53.172;6.598;2022-11-28T05:26:33;43.78;;;24.90;;
51852;SDS011;37894;53.172;6.598;2022-11-28T05:29:00;46.38;;;27.73;;
51852;SDS011;37894;53.172;6.598;2022-11-28T05:31:26;44.38;;;24.85;;
51852;SDS011;37894;53.172;6.598;2022-11-28T05:33:52;44.13;;;25.08;;
51852;SDS011;37894;53.172;6.598;2022-11-28T05:36:18;43.45;;;23.83;;
51852;SDS011;37894;53.172;6.598;2022-11-28T05:38:45;40.75;;;24.38;;
51852;SDS011;37894;53.172;6.598;2022-11-28T05:41:18;45.83;;;24.77;;
51852;SDS011;37894;53.172;6.598;2022-11-28T05:43:45;40.40;;;23.80;;
51852;SDS011;37894;53.172;6.598;2022-11-28T05:46:11;38.08;;;22.98;;
51852;SDS011;37894;53.172;6.598;2022-11-28T05:48:37;39.88;;;23.23;;
51852;SDS011;37894;53.172;6.598;2022-11-28T05:51:03;34.75;;;23.80;;
51852;SDS011;37894;53.172;6.598;2022-11-28T05:53:29;41.60;;;24.10;;
51852;SDS011;37894;53.172;6.598;2022-11-28T05:55:55;40.53;;;24.77;;
51852;SDS011;37894;53.172;6.598;2022-11-28T05:58:21;36.47;;;23.75;;
51852;SDS011;37894;53.172;6.598;2022-11-28T06:00:47;38.22;;;23.20;;
51852;SDS011;37894;53.172;6.598;2022-11-28T06:03:13;38.63;;;22.65;;
51852;SDS011;37894;53.172;6.598;2022-11-28T06:05:40;41.88;;;22.92;;
51852;SDS011;37894;53.172;6.598;2022-11-28T06:08:07;41.92;;;23.48;;
51852;SDS011;37894;53.172;6.598;2022-11-28T06:10:33;37.38;;;23.30;;
51852;SDS011;37894;53.172;6.598;2022-11-28T06:12:59;38.15;;;23.05;;
51852;SDS011;37894;53.172;6.598;2022-11-28T06:15:27;41.30;;;22.92;;
51852;SDS011;37894;53.172;6.598;2022-11-28T06:17:54;34.47;;;22.63;;
51852;SDS011;37894;53.172;6.598;2022-11-28T06:20:20;33.47;;;21.70;;
51852;SDS011;37894;53.172;6.598;2022-11-28T06:22:45;37.13;;;22.05;;
51852;SDS011;37894;53.172;6.598;2022-11-28T06:25:12;35.67;;;20.60;;
51852;SDS011;37894;53.172;6.598;2022-11-28T06:27:37;32.00;;;20.30;;
51852;SDS011;37894;53.172;6.598;2022-11-28T06:30:04;28.80;;;17.92;;
51852;SDS011;37894;53.172;6.598;2022-11-28T06:32:30;34.10;;;19.70;;
51852;SDS011;37894;53.172;6.598;2022-11-28T06:34:56;29.23;;;18.38;;
51852;SDS011;37894;53.172;6.598;2022-11-28T06:37:22;31.65;;;17.85;;
51852;SDS011;37894;53.172;6.598;2022-11-28T06:39:48;35.05;;;19.60;;
51852;SDS011;37894;53.172;6.598;2022-11-28T06:42:15;33.22;;;19.10;;
51852;SDS011;37894;53.172;6.598;2022-11-28T06:44:42;32.40;;;19.52;;
51852;SDS011;37894;53.172;6.598;2022-11-28T06:47:08;32.05;;;18.25;;
51852;SDS011;37894;53.172;6.598;2022-11-28T06:49:33;29.15;;;18.75;;
51852;SDS011;37894;53.172;6.598;2022-11-28T06:52:01;30.00;;;18.27;;
51852;SDS011;37894;53.172;6.598;2022-11-28T06:54:27;28.73;;;17.40;;
51852;SDS011;37894;53.172;6.598;2022-11-28T06:56:52;35.85;;;19.92;;
51852;SDS011;37894;53.172;6.598;2022-11-28T06:59:18;30.60;;;18.38;;
51852;SDS011;37894;53.172;6.598;2022-11-28T07:01:44;30.70;;;18.35;;
51852;SDS011;37894;53.172;6.598;2022-11-28T07:04:09;27.83;;;16.90;;
51852;SDS011;37894;53.172;6.598;2022-11-28T07:06:35;31.60;;;18.48;;
51852;SDS011;37894;53.172;6.598;2022-11-28T07:09:01;30.30;;;19.73;;
51852;SDS011;37894;53.172;6.598;2022-11-28T07:11:28;31.38;;;19.27;;
51852;SDS011;37894;53.172;6.598;2022-11-28T07:13:56;34.45;;;18.88;;
51852;SDS011;37894;53.172;6.598;2022-11-28T07:16:28;30.45;;;19.40;;
51852;SDS011;37894;53.172;6.598;2022-11-28T07:18:56;36.33;;;19.75;;
51852;SDS011;37894;53.172;6.598;2022-11-28T07:21:23;35.05;;;18.73;;
51852;SDS011;37894;53.172;6.598;2022-11-28T07:23:49;32.38;;;19.75;;
51852;SDS011;37894;53.172;6.598;2022-11-28T07:26:16;29.08;;;17.95;;
51852;SDS011;37894;53.172;6.598;2022-11-28T07:28:47;32.25;;;19.40;;
51852;SDS011;37894;53.172;6.598;2022-11-28T07:31:14;29.17;;;19.55;;
51852;SDS011;37894;53.172;6.598;2022-11-28T07:33:45;30.20;;;18.02;;
51852;SDS011;37894;53.172;6.598;2022-11-28T07:36:13;31.20;;;17.85;;
51852;SDS011;37894;53.172;6.598;2022-11-28T07:38:41;33.13;;;19.17;;
51852;SDS011;37894;53.172;6.598;2022-11-28T07:41:08;33.00;;;19.75;;
51852;SDS011;37894;53.172;6.598;2022-11-28T07:43:36;34.80;;;18.20;;
51852;SDS011;37894;53.172;6.598;2022-11-28T07:46:03;29.77;;;17.98;;
51852;SDS011;37894;53.172;6.598;2022-11-28T07:48:33;32.10;;;19.50;;
51852;SDS011;37894;53.172;6.598;2022-11-28T07:51:09;34.22;;;18.58;;
51852;SDS011;37894;53.172;6.598;2022-11-28T07:53:37;31.75;;;19.40;;
51852;SDS011;37894;53.172;6.598;2022-11-28T07:56:05;28.98;;;17.55;;
51852;SDS011;37894;53.172;6.598;2022-11-28T07:58:34;33.30;;;19.63;;
51852;SDS011;37894;53.172;6.598;2022-11-28T08:01:11;34.05;;;20.23;;
51852;SDS011;37894;53.172;6.598;2022-11-28T08:03:39;35.08;;;19.98;;
51852;SDS011;37894;53.172;6.598;2022-11-28T08:06:15;35.15;;;18.27;;
51852;SDS011;37894;53.172;6.598;2022-11-28T08:08:43;33.83;;;18.05;;
51852;SDS011;37894;53.172;6.598;2022-11-28T08:11:14;32.20;;;19.33;;
51852;SDS011;37894;53.172;6.598;2022-11-28T08:13:41;36.70;;;21.13;;
51852;SDS011;37894;53.172;6.598;2022-11-28T08:16:10;33.25;;;19.17;;
51852;SDS011;37894;53.172;6.598;2022-11-28T08:18:38;39.42;;;20.75;;
51852;SDS011;37894;53.172;6.598;2022-11-28T08:21:05;35.28;;;19.95;;
51852;SDS011;37894;53.172;6.598;2022-11-28T08:23:36;36.30;;;19.20;;
51852;SDS011;37894;53.172;6.598;2022-11-28T08:26:03;30.30;;;18.75;;
51852;SDS011;37894;53.172;6.598;2022-11-28T08:28:30;34.53;;;19.60;;
51852;SDS011;37894;53.172;6.598;2022-11-28T08:30:56;29.23;;;18.02;;
51852;SDS011;37894;53.172;6.598;2022-11-28T08:33:25;33.47;;;19.02;;
51852;SDS011;37894;53.172;6.598;2022-11-28T08:35:51;32.28;;;18.90;;
51852;SDS011;37894;53.172;6.598;2022-11-28T08:38:17;30.52;;;17.15;;
51852;SDS011;37894;53.172;6.598;2022-11-28T08:40:43;35.20;;;19.38;;
51852;SDS011;37894;53.172;6.598;2022-11-28T08:43:09;34.38;;;18.05;;
51852;SDS011;37894;53.172;6.598;2022-11-28T08:45:36;27.92;;;17.02;;
51852;SDS011;37894;53.172;6.598;2022-11-28T08:48:03;28.55;;;17.52;;
51852;SDS011;37894;53.172;6.598;2022-11-28T08:50:29;26.33;;;15.50;;
51852;SDS011;37894;53.172;6.598;2022-11-28T08:52:55;26.58;;;15.32;;
51852;SDS011;37894;53.172;6.598;2022-11-28T08:55:22;25.30;;;14.77;;
51852;SDS011;37894;53.172;6.598;2022-11-28T08:57:48;27.13;;;14.60;;
51852;SDS011;37894;53.172;6.598;2022-11-28T09:00:15;19.80;;;12.32;;
51852;SDS011;37894;53.172;6.598;2022-11-28T09:02:41;21.58;;;13.90;;
51852;SDS011;37894;53.172;6.598;2022-11-28T09:05:07;22.73;;;13.93;;
51852;SDS011;37894;53.172;6.598;2022-11-28T09:07:33;24.92;;;13.80;;
51852;SDS011;37894;53.172;6.598;2022-11-28T09:09:59;25.58;;;14.13;;
51852;SDS011;37894;53.172;6.598;2022-11-28T09:12:25;25.23;;;12.80;;
51852;SDS011;37894;53.172;6.598;2022-11-28T09:14:51;20.90;;;12.48;;
51852;SDS011;37894;53.172;6.598;2022-11-28T09:17:17;22.38;;;12.75;;
51852;SDS011;37894;53.172;6.598;2022-11-28T09:19:42;21.83;;;12.63;;
51852;SDS011;37894;53.172;6.598;2022-11-28T09:22:08;18.08;;;11.75;;
51852;SDS011;37894;53.172;6.598;2022-11-28T09:24:34;17.45;;;11.02;;
51852;SDS011;37894;53.172;6.598;2022-11-28T09:27:01;16.83;;;10.73;;
51852;SDS011;37894;53.172;6.598;2022-11-28T09:29:27;19.33;;;11.30;;
51852;SDS011;37894;53.172;6.598;2022-11-28T09:31:53;20.48;;;12.80;;
51852;SDS011;37894;53.172;6.598;2022-11-28T09:34:19;18.75;;;10.88;;
51852;SDS011;37894;53.172;6.598;2022-11-28T09:36:45;17.38;;;10.25;;
51852;SDS011;37894;53.172;6.598;2022-11-28T09:39:11;16.60;;;11.07;;
51852;SDS011;37894;53.172;6.598;2022-11-28T09:41:38;15.93;;;9.93;;
51852;SDS011;37894;53.172;6.598;2022-11-28T09:44:25;18.48;;;10.27;;
51852;SDS011;37894;53.172;6.598;2022-11-28T09:47:31;15.15;;;9.32;;
51852;SDS011;37894;53.172;6.598;2022-11-28T09:50:10;16.13;;;9.75;;
51852;SDS011;37894;53.172;6.598;2022-11-28T09:55:43;14.23;;;8.98;;
51852;SDS011;37894;53.172;6.598;2022-11-28T09:58:15;14.73;;;8.65;;
51852;SDS011;37894;53.172;6.598;2022-11-28T10:03:38;17.08;;;8.50;;
51852;SDS011;37894;53.172;6.598;2022-11-28T10:06:14;16.50;;;8.07;;
51852;SDS011;37894;53.172;6.598;2022-11-28T10:19:50;12.27;;;7.78;;
51852;SDS011;37894;53.172;6.598;2022-11-28T10:22:19;12.32;;;8.27;;
51852;SDS011;37894;53.172;6.598;2022-11-28T10:24:55;12.52;;;8.18;;
51852;SDS011;37894;53.172;6.598;2022-11-28T10:27:31;12.32;;;8.18;;
51852;SDS011;37894;53.172;6.598;2022-11-28T10:30:02;13.65;;;8.30;;
51852;SDS011;37894;53.172;6.598;2022-11-28T10:32:46;12.23;;;8.15;;
51852;SDS011;37894;53.172;6.598;2022-11-28T10:35:38;11.65;;;8.13;;
51852;SDS011;37894;53.172;6.598;2022-11-28T10:38:14;14.05;;;8.32;;
51852;SDS011;37894;53.172;6.598;2022-11-28T10:40:48;13.70;;;8.60;;
51852;SDS011;37894;53.172;6.598;2022-11-28T11:02:18;14.95;;;8.50;;
51852;SDS011;37894;53.172;6.598;2022-11-28T11:04:56;13.50;;;8.50;;
51852;SDS011;37894;53.172;6.598;2022-11-28T11:07:27;14.68;;;9.57;;
51852;SDS011;37894;53.172;6.598;2022-11-28T11:09:56;14.52;;;9.23;;
51852;SDS011;37894;53.172;6.598;2022-11-28T11:12:37;18.08;;;9.77;;
51852;SDS011;37894;53.172;6.598;2022-11-28T11:15:19;13.13;;;8.32;;
51852;SDS011;37894;53.172;6.598;2022-11-28T11:17:54;14.32;;;8.57;;
51852;SDS011;37894;53.172;6.598;2022-11-28T11:20:25;11.85;;;8.15;;
51852;SDS011;37894;53.172;6.598;2022-11-28T11:25:21;16.90;;;9.38;;
51852;SDS011;37894;53.172;6.598;2022-11-28T11:27:50;12.70;;;8.35;;
51852;SDS011;37894;53.172;6.598;2022-11-28T11:32:57;12.70;;;8.43;;
51852;SDS011;37894;53.172;6.598;2022-11-28T11:35:25;12.55;;;7.45;;
51852;SDS011;37894;53.172;6.598;2022-11-28T11:38:10;14.95;;;9.02;;
51852;SDS011;37894;53.172;6.598;2022-11-28T11:40:41;13.73;;;7.93;;
51852;SDS011;37894;53.172;6.598;2022-11-28T11:48:39;13.80;;;8.00;;
51852;SDS011;37894;53.172;6.598;2022-11-28T11:51:20;14.07;;;8.32;;
51852;SDS011;37894;53.172;6.598;2022-11-28T11:56:27;18.73;;;9.63;;
51852;SDS011;37894;53.172;6.598;2022-11-28T11:58:55;14.10;;;8.52;;
51852;SDS011;37894;53.172;6.598;2022-11-28T12:01:23;13.65;;;8.50;;
51852;SDS011;37894;53.172;6.598;2022-11-28T12:03:54;14.43;;;8.98;;
51852;SDS011;37894;53.172;6.598;2022-11-28T12:06:28;15.32;;;8.88;;
51852;SDS011;37894;53.172;6.598;2022-11-28T12:09:02;15.32;;;9.93;;
51852;SDS011;37894;53.172;6.598;2022-11-28T12:11:51;13.15;;;9.45;;
51852;SDS011;37894;53.172;6.598;2022-11-28T12:14:46;15.10;;;9.43;;
51852;SDS011;37894;53.172;6.598;2022-11-28T12:17:15;14.90;;;9.77;;
51852;SDS011;37894;53.172;6.598;2022-11-28T12:20:08;14.52;;;9.43;;
51852;SDS011;37894;53.172;6.598;2022-11-28T12:38:17;14.70;;;9.45;;
51852;SDS011;37894;53.172;6.598;2022-11-28T12:43:50;13.95;;;9.02;;
51852;SDS011;37894;53.172;6.598;2022-11-28T12:49:41;16.38;;;9.82;;
51852;SDS011;37894;53.172;6.598;2022-11-28T12:52:30;16.35;;;9.02;;
51852;SDS011;37894;53.172;6.598;2022-11-28T13:00:32;14.73;;;9.90;;
51852;SDS011;37894;53.172;6.598;2022-11-28T13:03:09;16.58;;;9.70;;
51852;SDS011;37894;53.172;6.598;2022-11-28T13:16:45;14.23;;;9.00;;
51852;SDS011;37894;53.172;6.598;2022-11-28T13:22:15;11.55;;;7.22;;
51852;SDS011;37894;53.172;6.598;2022-11-28T13:24:59;14.00;;;9.00;;
51852;SDS011;37894;53.172;6.598;2022-11-28T13:33:03;12.77;;;7.32;;
51852;SDS011;37894;53.172;6.598;2022-11-28T13:35:43;11.73;;;7.30;;
51852;SDS011;37894;53.172;6.598;2022-11-28T13:41:38;11.82;;;7.57;;
51852;SDS011;37894;53.172;6.598;2022-11-28T13:49:49;11.68;;;7.50;;
51852;SDS011;37894;53.172;6.598;2022-11-28T13:54:50;12.80;;;7.75;;
51852;SDS011;37894;53.172;6.598;2022-11-28T14:02:43;12.35;;;7.55;;
51852;SDS011;37894;53.172;6.598;2022-11-28T14:05:31;12.45;;;7.28;;
51852;SDS011;37894;53.172;6.598;2022-11-28T14:08:04;13.82;;;9.30;;
51852;SDS011;37894;53.172;6.598;2022-11-28T14:10:55;34.67;;;20.85;;
51852;SDS011;37894;53.172;6.598;2022-11-28T14:24:55;14.30;;;8.60;;
51852;SDS011;37894;53.172;6.598;2022-11-28T14:27:38;13.27;;;8.32;;
51852;SDS011;37894;53.172;6.598;2022-11-28T14:33:05;14.70;;;8.25;;
51852;SDS011;37894;53.172;6.598;2022-11-28T14:38:48;13.55;;;9.02;;
51852;SDS011;37894;53.172;6.598;2022-11-28T14:41:07;13.68;;;9.18;;
51852;SDS011;37894;53.172;6.598;2022-11-28T14:43:40;14.27;;;8.27;;
51852;SDS011;37894;53.172;6.598;2022-11-28T14:56:42;15.40;;;8.82;;
51852;SDS011;37894;53.172;6.598;2022-11-28T14:59:08;14.40;;;8.10;;
51852;SDS011;37894;53.172;6.598;2022-11-28T15:01:52;17.95;;;9.80;;
51852;SDS011;37894;53.172;6.598;2022-11-28T15:10:00;16.85;;;11.60;;
51852;SDS011;37894;53.172;6.598;2022-11-28T15:15:29;18.25;;;10.55;;
51852;SDS011;37894;53.172;6.598;2022-11-28T15:17:56;23.50;;;11.20;;
51852;SDS011;37894;53.172;6.598;2022-11-28T15:20:32;20.58;;;11.52;;
51852;SDS011;37894;53.172;6.598;2022-11-28T15:23:20;21.83;;;11.43;;
51852;SDS011;37894;53.172;6.598;2022-11-28T15:25:51;25.30;;;11.90;;
51852;SDS011;37894;53.172;6.598;2022-11-28T15:28:19;22.95;;;12.30;;
51852;SDS011;37894;53.172;6.598;2022-11-28T15:30:46;61.75;;;45.35;;
51852;SDS011;37894;53.172;6.598;2022-11-28T15:33:14;26.33;;;12.82;;
51852;SDS011;37894;53.172;6.598;2022-11-28T15:36:01;29.23;;;13.55;;
51852;SDS011;37894;53.172;6.598;2022-11-28T15:38:32;32.00;;;16.17;;
51852;SDS011;37894;53.172;6.598;2022-11-28T15:40:59;30.73;;;14.90;;
51852;SDS011;37894;53.172;6.598;2022-11-28T15:43:25;36.60;;;20.98;;
51852;SDS011;37894;53.172;6.598;2022-11-28T15:45:52;34.10;;;15.27;;
51852;SDS011;37894;53.172;6.598;2022-11-28T15:48:35;31.48;;;14.40;;
51852;SDS011;37894;53.172;6.598;2022-11-28T15:51:32;30.27;;;14.75;;
51852;SDS011;37894;53.172;6.598;2022-11-28T15:54:02;39.17;;;17.10;;
51852;SDS011;37894;53.172;6.598;2022-11-28T15:56:28;36.47;;;16.38;;
51852;SDS011;37894;53.172;6.598;2022-11-28T15:58:54;37.30;;;16.27;;
51852;SDS011;37894;53.172;6.598;2022-11-28T16:01:21;38.20;;;17.02;;
51852;SDS011;37894;53.172;6.598;2022-11-28T16:03:53;42.80;;;16.25;;
51852;SDS011;37894;53.172;6.598;2022-11-28T16:06:19;45.85;;;18.80;;
51852;SDS011;37894;53.172;6.598;2022-11-28T16:08:53;43.80;;;17.83;;
51852;SDS011;37894;53.172;6.598;2022-11-28T16:11:28;43.28;;;17.85;;
51852;SDS011;37894;53.172;6.598;2022-11-28T16:13:56;49.35;;;18.73;;
51852;SDS011;37894;53.172;6.598;2022-11-28T16:16:24;67.38;;;20.80;;
51852;SDS011;37894;53.172;6.598;2022-11-28T16:18:59;45.33;;;18.55;;
51852;SDS011;37894;53.172;6.598;2022-11-28T16:21:28;57.53;;;19.27;;
51852;SDS011;37894;53.172;6.598;2022-11-28T16:23:59;54.65;;;20.67;;
51852;SDS011;37894;53.172;6.598;2022-11-28T16:29:00;78.97;;;29.70;;
51852;SDS011;37894;53.172;6.598;2022-11-28T16:31:29;76.95;;;23.10;;
51852;SDS011;37894;53.172;6.598;2022-11-28T16:33:55;63.20;;;20.63;;
51852;SDS011;37894;53.172;6.598;2022-11-28T16:39:29;77.57;;;21.95;;
51852;SDS011;37894;53.172;6.598;2022-11-28T16:41:51;72.13;;;23.27;;
51852;SDS011;37894;53.172;6.598;2022-11-28T16:44:29;82.97;;;23.83;;
51852;SDS011;37894;53.172;6.598;2022-11-28T16:46:57;111.25;;;26.48;;
51852;SDS011;37894;53.172;6.598;2022-11-28T16:49:29;96.72;;;26.25;;
51852;SDS011;37894;53.172;6.598;2022-11-28T16:52:56;102.13;;;25.40;;
51852;SDS011;37894;53.172;6.598;2022-11-28T16:54:54;92.30;;;26.10;;
51852;SDS011;37894;53.172;6.598;2022-11-28T16:59:49;89.88;;;24.20;;
51852;SDS011;37894;53.172;6.598;2022-11-28T17:02:23;105.60;;;27.45;;
51852;SDS011;37894;53.172;6.598;2022-11-28T17:04:52;147.88;;;31.33;;
51852;SDS011;37894;53.172;6.598;2022-11-28T17:07:19;121.28;;;28.50;;
51852;SDS011;37894;53.172;6.598;2022-11-28T17:09:48;137.27;;;29.05;;
51852;SDS011;37894;53.172;6.598;2022-11-28T17:14:50;124.25;;;28.90;;
51852;SDS011;37894;53.172;6.598;2022-11-28T17:17:17;107.78;;;26.50;;
51852;SDS011;37894;53.172;6.598;2022-11-28T17:19:44;147.38;;;28.10;;
51852;SDS011;37894;53.172;6.598;2022-11-28T17:22:14;129.45;;;40.83;;
51852;SDS011;37894;53.172;6.598;2022-11-28T17:24:42;112.53;;;28.48;;
51852;SDS011;37894;53.172;6.598;2022-11-28T17:27:12;123.53;;;29.13;;
51852;SDS011;37894;53.172;6.598;2022-11-28T17:29:39;139.88;;;32.38;;
51852;SDS011;37894;53.172;6.598;2022-11-28T17:32:13;134.35;;;28.65;;
51852;SDS011;37894;53.172;6.598;2022-11-28T17:34:39;146.32;;;30.55;;
51852;SDS011;37894;53.172;6.598;2022-11-28T17:37:05;142.60;;;31.70;;
51852;SDS011;37894;53.172;6.598;2022-11-28T17:39:32;156.10;;;31.27;;
51852;SDS011;37894;53.172;6.598;2022-11-28T17:41:58;107.05;;;30.30;;
51852;SDS011;37894;53.172;6.598;2022-11-28T17:44:26;151.50;;;30.27;;
51852;SDS011;37894;53.172;6.598;2022-11-28T17:46:54;155.10;;;34.05;;
51852;SDS011;37894;53.172;6.598;2022-11-28T17:49:20;91.15;;;27.42;;
51852;SDS011;37894;53.172;6.598;2022-11-28T17:51:47;122.85;;;28.70;;
51852;SDS011;37894;53.172;6.598;2022-11-28T17:54:14;118.53;;;27.35;;
51852;SDS011;37894;53.172;6.598;2022-11-28T17:56:42;104.70;;;26.70;;
51852;SDS011;37894;53.172;6.598;2022-11-28T17:59:10;139.18;;;27.33;;
51852;SDS011;37894;53.172;6.598;2022-11-28T18:01:36;105.90;;;27.27;;
51852;SDS011;37894;53.172;6.598;2022-11-28T18:04:03;136.43;;;26.98;;
51852;SDS011;37894;53.172;6.598;2022-11-28T18:06:29;116.15;;;28.13;;
51852;SDS011;37894;53.172;6.598;2022-11-28T18:08:57;136.55;;;30.25;;
51852;SDS011;37894;53.172;6.598;2022-11-28T18:11:24;118.30;;;28.98;;
51852;SDS011;37894;53.172;6.598;2022-11-28T18:13:50;122.10;;;28.40;;